Time;durP1;ratioP1;P1;durP2;ratioP2;P2;SDS_P1;SDS_P2;PMS_P1;PMS_P2;Temp;Humidity;BMP_temperature;BMP_pressure;BME280_temperature;BME280_humidity;BME280_pressure;Samples;Min_cycle;Max_cycle;Signal;HPM_P1;HPM_P2
2023/11/29 05:37:25;;;;;;;3.30;2.60;;;;;;;-3.51;100.00;96673.75;1251215;75;2801127;-60
2023/11/29 05:39:58;;;;;;;2.80;2.05;;;;;;;-3.54;100.00;96677.25;1224895;75;2924604;-63
2023/11/29 05:42:31;;;;;;;2.95;2.15;;;;;;;-3.51;100.00;96679.88;1225008;75;2925321;-64
2023/11/29 05:45:04;;;;;;;2.45;2.25;;;;;;;-3.47;100.00;96685.91;1225058;75;2925234;-62
2023/11/29 05:47:37;;;;;;;2.20;1.90;;;;;;;-3.38;100.00;96687.34;1224965;75;2941263;-60
2023/11/29 05:50:11;;;;;;;2.85;2.10;;;;;;;-3.45;100.00;96688.94;1224866;75;2942084;-62
2023/11/29 05:52:46;;;;;;;3.90;2.00;;;;;;;-3.43;100.00;96700.00;1224443;75;2929566;-61
2023/11/29 05:55:19;;;;;;;3.10;2.20;;;;;;;-3.32;100.00;96701.75;1224185;75;2938711;-62
2023/11/29 05:57:52;;;;;;;3.00;2.00;;;;;;;-3.27;100.00;96698.59;1224077;75;2924180;-62
2023/11/29 06:00:25;;;;;;;3.85;2.45;;;;;;;-3.09;100.00;96709.03;1224804;75;2928706;-62
2023/11/29 06:02:58;;;;;;;2.95;2.10;;;;;;;-3.11;100.00;96714.03;1225873;75;2921302;-62
2023/11/29 06:05:31;;;;;;;2.10;1.70;;;;;;;-3.14;100.00;96712.94;1224585;75;2963913;-62
2023/11/29 06:08:07;;;;;;;2.05;1.70;;;;;;;-3.22;100.00;96717.66;1224939;75;2924281;-64
2023/11/29 06:10:40;;;;;;;2.85;1.75;;;;;;;-3.13;100.00;96724.41;1224908;75;2916843;-63
2023/11/29 06:13:13;;;;;;;3.40;1.80;;;;;;;-3.17;100.00;96721.03;1225273;75;2928850;-63
2023/11/29 06:15:46;;;;;;;3.15;2.30;;;;;;;-3.11;100.00;96724.75;1224545;75;2927761;-63
2023/11/29 06:18:18;;;;;;;3.20;2.10;;;;;;;-3.07;100.00;96725.44;1225050;75;2925090;-61
2023/11/29 06:20:52;;;;;;;3.60;2.40;;;;;;;-3.05;100.00;96734.59;1225565;75;2930013;-64
2023/11/29 06:23:27;;;;;;;3.10;2.20;;;;;;;-3.26;100.00;96733.00;1225235;75;2925596;-66
2023/11/29 06:26:01;;;;;;;3.70;2.50;;;;;;;-3.29;100.00;96741.84;1225960;75;2916157;-63
2023/11/29 06:28:35;;;;;;;5.60;3.40;;;;;;;-3.44;100.00;96748.56;1225676;75;2920916;-63
2023/11/29 06:31:09;;;;;;;5.75;3.90;;;;;;;-3.41;100.00;96744.34;1225845;75;2910004;-63
2023/11/29 06:33:42;;;;;;;5.80;3.45;;;;;;;-3.18;100.00;96756.97;1225044;75;2921748;-61
2023/11/29 06:36:15;;;;;;;5.80;3.65;;;;;;;-3.14;100.00;96752.34;1224664;75;2926271;-61
2023/11/29 06:38:52;;;;;;;6.90;3.15;;;;;;;-3.01;100.00;96747.91;1224956;75;2944733;-64
2023/11/29 06:41:25;;;;;;;4.45;3.15;;;;;;;-3.05;100.00;96756.00;1224523;75;2926340;-62
2023/11/29 06:43:58;;;;;;;3.95;2.75;;;;;;;-3.08;100.00;96767.53;1225609;75;2919077;-63
2023/11/29 06:46:31;;;;;;;4.35;3.30;;;;;;;-3.18;100.00;96765.75;1225406;75;2927738;-64
2023/11/29 06:49:06;;;;;;;4.30;3.50;;;;;;;-3.09;100.00;96765.25;1224707;75;2925815;-63
2023/11/29 06:51:39;;;;;;;4.60;3.20;;;;;;;-2.97;100.00;96771.97;1224277;75;2929769;-65
2023/11/29 06:54:15;;;;;;;4.45;3.05;;;;;;;-2.91;100.00;96765.72;1224849;75;2920176;-63
2023/11/29 06:56:48;;;;;;;5.30;3.75;;;;;;;-3.03;100.00;96763.63;1224820;75;2922314;-66
2023/11/29 06:59:20;;;;;;;4.90;3.45;;;;;;;-2.92;100.00;96774.16;1224698;75;2920495;-64
2023/11/29 07:01:53;;;;;;;5.30;3.25;;;;;;;-2.83;100.00;96777.09;1223645;75;2922647;-66
2023/11/29 07:04:27;;;;;;;3.65;2.90;;;;;;;-2.75;100.00;96791.09;1224096;75;2930699;-61
2023/11/29 07:07:00;;;;;;;4.90;2.90;;;;;;;-2.70;100.00;96793.31;1224634;75;2918984;-67
2023/11/29 07:09:36;;;;;;;4.70;2.95;;;;;;;-2.62;100.00;96789.38;1222972;75;2926927;-63
2023/11/29 07:12:10;;;;;;;7.15;3.85;;;;;;;-2.65;100.00;96792.84;1223993;75;2920641;-63
2023/11/29 07:14:43;;;;;;;5.25;3.30;;;;;;;-2.52;100.00;96799.13;1223699;75;2922895;-62
2023/11/29 07:17:16;;;;;;;6.10;3.45;;;;;;;-2.40;100.00;96803.16;1223956;75;2923876;-63
2023/11/29 07:19:50;;;;;;;6.30;3.85;;;;;;;-2.24;100.00;96791.75;1223330;75;2921970;-61
2023/11/29 07:22:24;;;;;;;6.15;3.65;;;;;;;-2.19;100.00;96800.06;1223831;75;2922742;-65
2023/11/29 07:25:00;;;;;;;5.50;3.30;;;;;;;-1.94;100.00;96796.16;1223744;75;2941169;-64
2023/11/29 07:27:33;;;;;;;7.90;4.45;;;;;;;-1.96;100.00;96801.19;1224203;75;2923608;-63
2023/11/29 07:30:08;;;;;;;7.35;3.25;;;;;;;-1.73;100.00;96803.78;1224167;75;2921773;-62
2023/11/29 07:32:41;;;;;;;5.55;3.10;;;;;;;-1.43;100.00;96818.09;1224249;75;2922127;-64
2023/11/29 07:35:14;;;;;;;3.35;2.40;;;;;;;-0.87;100.00;96820.72;1224280;75;2926788;-66
2023/11/29 07:37:48;;;;;;;4.05;2.35;;;;;;;-0.18;95.65;96819.78;1224413;75;2931200;-60
2023/11/29 07:40:24;;;;;;;4.25;2.55;;;;;;;0.96;85.02;96815.81;1224100;75;2922415;-63
2023/11/29 07:42:57;;;;;;;7.50;3.70;;;;;;;2.11;78.19;96812.78;1223985;75;2922765;-62
2023/11/29 07:45:30;;;;;;;6.25;4.10;;;;;;;2.42;74.89;96814.78;1223833;75;2918886;-63
2023/11/29 07:48:02;;;;;;;4.25;2.85;;;;;;;3.86;70.47;96822.75;1223681;75;2920111;-64
2023/11/29 07:50:35;;;;;;;4.25;2.60;;;;;;;3.45;70.45;96830.22;1223973;75;2925772;-62
2023/11/29 07:53:08;;;;;;;4.25;2.45;;;;;;;3.87;69.61;96832.38;1223949;75;2920896;-62
2023/11/29 07:55:43;;;;;;;3.95;2.50;;;;;;;3.30;69.49;96830.78;1224249;75;2935318;-62
2023/11/29 07:58:16;;;;;;;3.10;1.70;;;;;;;2.92;71.02;96833.81;1223021;75;2984203;-62
2023/11/29 08:00:49;;;;;;;3.90;2.10;;;;;;;2.73;72.26;96841.09;1223938;75;2927331;-64
2023/11/29 08:03:22;;;;;;;4.50;2.55;;;;;;;2.35;73.22;96850.16;1224253;75;2922114;-62
2023/11/29 08:05:55;;;;;;;21.65;12.00;;;;;;;1.63;77.72;96849.88;1223931;75;2927248;-61
2023/11/29 08:08:27;;;;;;;17.50;11.75;;;;;;;1.42;81.86;96850.56;1224939;75;2922948;-62
2023/11/29 08:11:03;;;;;;;15.05;10.25;;;;;;;1.09;87.07;96856.22;1224668;75;2923526;-63
2023/11/29 08:13:37;;;;;;;8.30;6.45;;;;;;;1.05;91.61;96853.63;1224370;75;2925605;-64
2023/11/29 08:16:10;;;;;;;6.35;4.95;;;;;;;0.85;94.05;96856.53;1223936;75;2922772;-63
2023/11/29 08:18:43;;;;;;;6.35;4.55;;;;;;;0.73;97.52;96864.59;1224413;75;2923199;-64
2023/11/29 08:21:16;;;;;;;5.30;4.25;;;;;;;0.99;96.08;96868.09;1223831;75;2941139;-63
2023/11/29 08:23:49;;;;;;;4.70;3.70;;;;;;;0.92;97.42;96866.34;1223637;75;2928530;-62
2023/11/29 08:26:25;;;;;;;6.25;4.40;;;;;;;1.12;99.19;96865.38;1225283;75;2924003;-62
2023/11/29 08:28:58;;;;;;;4.35;3.85;;;;;;;1.63;90.26;96863.38;1224821;75;2922130;-64
2023/11/29 08:31:31;;;;;;;5.20;4.10;;;;;;;1.53;92.55;96869.13;1224259;75;2927047;-63
2023/11/29 08:34:03;;;;;;;7.10;4.40;;;;;;;1.08;96.52;96870.88;1224357;75;2916647;-63
2023/11/29 08:36:36;;;;;;;5.50;4.30;;;;;;;1.14;95.65;96863.75;1224541;75;2921664;-63
2023/11/29 08:39:11;;;;;;;5.70;4.45;;;;;;;1.56;90.48;96871.69;1224431;75;2931035;-63
2023/11/29 08:41:46;;;;;;;4.80;3.65;;;;;;;1.64;91.76;96864.91;1224591;75;2914186;-63
2023/11/29 08:44:19;;;;;;;8.10;5.05;;;;;;;1.78;89.72;96873.69;1223502;75;2923196;-64
2023/11/29 08:46:52;;;;;;;5.05;4.30;;;;;;;1.61;91.36;96868.47;1224618;75;2920611;-63
2023/11/29 08:49:25;;;;;;;6.05;4.50;;;;;;;1.43;91.93;96870.97;1224415;75;2915674;-60
2023/11/29 08:51:57;;;;;;;4.70;4.20;;;;;;;1.69;92.49;96877.09;1224767;75;2921036;-60
2023/11/29 08:54:31;;;;;;;5.05;4.30;;;;;;;2.19;89.69;96885.44;1225154;75;2923276;-63
2023/11/29 08:57:07;;;;;;;5.25;4.10;;;;;;;2.41;86.06;96888.19;1224164;75;2916924;-62
2023/11/29 08:59:40;;;;;;;5.90;4.15;;;;;;;2.17;86.50;96901.34;1223797;75;2925962;-62
2023/11/29 09:02:13;;;;;;;4.70;4.20;;;;;;;2.87;83.18;96908.13;1224521;75;2915703;-62
2023/11/29 09:04:46;;;;;;;4.95;4.20;;;;;;;3.57;79.14;96905.13;1224007;75;2922363;-62
2023/11/29 09:07:19;;;;;;;6.80;4.50;;;;;;;3.69;76.37;96893.41;1223640;75;2926158;-64
2023/11/29 09:09:55;;;;;;;5.10;4.00;;;;;;;3.96;75.46;96895.41;1224627;75;2918746;-64
2023/11/29 09:12:30;;;;;;;4.90;4.30;;;;;;;4.51;72.88;96896.63;1224964;75;2922131;-63
2023/11/29 09:15:04;;;;;;;5.75;5.15;;;;;;;4.21;71.84;96891.69;1224589;75;2919345;-61
2023/11/29 09:17:40;;;;;;;6.35;3.90;;;;;;;5.26;69.91;96904.88;1225079;75;2923878;-65
2023/11/29 09:20:14;;;;;;;4.05;3.55;;;;;;;6.14;67.20;96895.69;1224168;75;2928019;-63
2023/11/29 09:22:48;;;;;;;5.20;3.65;;;;;;;5.10;68.49;96888.97;1224638;75;2934330;-63
2023/11/29 09:25:20;;;;;;;5.80;4.50;;;;;;;5.11;68.82;96890.47;1224807;75;2920549;-65
2023/11/29 09:27:56;;;;;;;5.15;4.30;;;;;;;6.25;66.64;96883.50;1223944;75;2920549;-64
2023/11/29 09:30:29;;;;;;;4.20;3.80;;;;;;;5.57;67.13;96887.56;1224329;75;2923290;-64
2023/11/29 09:33:01;;;;;;;4.70;4.00;;;;;;;6.64;64.36;96886.97;1223956;83;2925496;-64
2023/11/29 09:35:34;;;;;;;5.45;4.30;;;;;;;6.65;63.98;96882.28;1223871;75;2921809;-64
2023/11/29 09:38:08;;;;;;;7.10;4.20;;;;;;;6.55;63.89;96887.03;1223995;75;2942600;-64
2023/11/29 09:40:41;;;;;;;6.20;3.95;;;;;;;7.89;61.92;96884.88;1224760;75;2927335;-63
2023/11/29 09:43:16;;;;;;;3.80;3.30;;;;;;;9.43;58.69;96883.16;1223583;75;2921371;-66
2023/11/29 09:45:50;;;;;;;5.85;3.85;;;;;;;8.65;57.46;96879.28;1224455;75;2935105;-65
2023/11/29 09:48:22;;;;;;;4.30;3.45;;;;;;;9.46;57.13;96880.19;1223903;75;2920667;-63
2023/11/29 09:50:55;;;;;;;4.55;3.55;;;;;;;9.15;56.70;96873.53;1223494;75;2917422;-64
2023/11/29 09:53:30;;;;;;;4.50;3.50;;;;;;;10.42;54.24;96869.72;1224271;75;2934403;-63
2023/11/29 09:56:03;;;;;;;4.80;3.45;;;;;;;11.23;53.01;96872.78;1224250;75;2920961;-66
2023/11/29 09:58:39;;;;;;;6.70;3.60;;;;;;;10.41;52.82;96879.16;1224154;75;2924277;-65
2023/11/29 10:01:12;;;;;;;14.50;8.05;;;;;;;10.95;51.08;96873.53;1224184;75;2922776;-64
2023/11/29 10:03:45;;;;;;;5.60;4.20;;;;;;;12.01;49.60;96880.16;1223059;75;2934920;-64
2023/11/29 10:06:20;;;;;;;6.85;3.95;;;;;;;13.25;47.63;96862.16;1224480;75;2923609;-63
2023/11/29 10:08:52;;;;;;;5.05;3.30;;;;;;;12.98;46.66;96870.13;1224362;75;2918718;-64
2023/11/29 10:11:26;;;;;;;6.65;3.40;;;;;;;11.76;48.52;96873.72;1222813;75;2942904;-63
2023/11/29 10:14:04;;;;;;;3.35;2.95;;;;;;;12.11;49.13;96866.88;1224359;75;2927148;-64
2023/11/29 10:16:37;;;;;;;3.80;2.90;;;;;;;11.09;50.13;96871.81;1224563;75;2925168;-65
2023/11/29 10:19:12;;;;;;;3.95;3.05;;;;;;;11.21;50.44;96867.09;1223947;75;2923401;-63
2023/11/29 10:21:48;;;;;;;5.00;3.20;;;;;;;11.91;49.81;96865.97;1223362;75;2937243;-67
2023/11/29 10:24:27;;;;;;;5.10;3.80;;;;;;;12.32;48.14;96850.84;1224244;75;2926348;-64
2023/11/29 10:27:00;;;;;;;4.85;3.55;;;;;;;12.19;47.58;96851.38;1222118;75;2915794;-64
2023/11/29 10:29:36;;;;;;;3.75;2.90;;;;;;;12.38;47.72;96848.06;1224639;75;2916790;-67
2023/11/29 10:32:12;;;;;;;5.95;2.90;;;;;;;11.93;47.60;96852.50;1224189;75;2932101;-67
2023/11/29 10:34:45;;;;;;;3.50;2.60;;;;;;;10.90;49.30;96860.59;1224113;75;2929574;-65
2023/11/29 10:37:18;;;;;;;2.80;2.40;;;;;;;12.09;48.33;96850.19;1224449;75;2937788;-64
2023/11/29 10:39:56;;;;;;;3.80;2.85;;;;;;;11.61;47.35;96852.06;1225209;75;2865955;-65
2023/11/29 10:42:29;;;;;;;4.50;3.20;;;;;;;11.16;47.23;96851.38;1225204;75;2923597;-64
2023/11/29 10:45:06;;;;;;;2.75;2.45;;;;;;;12.17;47.21;96851.16;1225236;75;2923092;-66
2023/11/29 10:47:45;;;;;;;3.20;2.70;;;;;;;11.35;49.05;96852.34;1225001;75;2929998;-67
2023/11/29 10:50:19;;;;;;;3.90;2.85;;;;;;;11.12;48.27;96853.63;1224603;75;2925573;-66
2023/11/29 10:52:53;;;;;;;3.00;2.45;;;;;;;12.60;46.62;96842.41;1223933;75;2920741;-64
2023/11/29 10:55:27;;;;;;;2.75;2.30;;;;;;;14.16;44.75;96835.97;1223621;75;2923650;-64
2023/11/29 10:58:06;;;;;;;4.20;2.70;;;;;;;13.74;43.75;96840.97;1224777;75;2923900;-65
2023/11/29 11:00:46;;;;;;;3.45;3.10;;;;;;;12.06;46.57;96840.22;1224718;75;2924727;-64
2023/11/29 11:03:46;;;;;;;4.00;3.20;;;;;;;13.94;44.97;96836.25;1225045;75;2919586;-63
2023/11/29 11:06:42;;;;;;;3.05;2.65;;;;;;;14.29;43.79;96849.09;1224551;75;2916321;-65
2023/11/29 11:09:36;;;;;;;3.80;2.45;;;;;;;15.43;41.94;96843.38;1223678;75;2925255;-62
2023/11/29 11:12:10;;;;;;;3.60;3.20;;;;;;;12.93;45.00;96835.94;1224617;75;2924267;-66
2023/11/29 11:14:54;;;;;;;4.10;3.70;;;;;;;11.48;47.54;96846.38;1224695;75;2919757;-63
2023/11/29 11:17:29;;;;;;;3.70;3.10;;;;;;;12.80;45.91;96846.78;1224781;75;2921588;-66
2023/11/29 11:20:10;;;;;;;3.50;2.70;;;;;;;14.55;42.00;96850.50;1224917;75;2924903;-66
2023/11/29 11:22:46;;;;;;;3.35;2.90;;;;;;;15.64;40.67;96835.22;1224181;75;2928149;-66
2023/11/29 11:25:19;;;;;;;2.35;2.05;;;;;;;16.39;39.75;96834.00;1224447;75;2924608;-65
2023/11/29 11:27:54;;;;;;;3.25;2.55;;;;;;;17.31;38.39;96834.13;1224607;75;2923785;-68
2023/11/29 11:30:30;;;;;;;5.05;3.00;;;;;;;14.98;41.53;96835.84;1225182;75;2923476;-64
2023/11/29 11:33:09;;;;;;;8.70;5.15;;;;;;;13.79;42.04;96833.91;1224731;75;2916911;-64
2023/11/29 11:35:41;;;;;;;;;;;;;;;13.67;43.20;96829.81;1225511;75;2922997;-65
2023/11/29 11:38:14;;;;;;;6.95;4.35;;;;;;;16.08;40.14;96843.94;1224169;75;2922973;-63
2023/11/29 11:40:47;;;;;;;7.45;5.20;;;;;;;15.00;39.97;96834.03;1225299;75;2926148;-64
2023/11/29 11:43:20;;;;;;;4.85;3.40;;;;;;;15.20;39.97;96848.50;1224265;75;2923593;-64
2023/11/29 11:45:53;;;;;;;6.15;4.60;;;;;;;14.43;41.05;96847.91;1224186;75;2921438;-69
2023/11/29 11:48:28;;;;;;;3.65;2.95;;;;;;;16.98;38.28;96841.97;1223847;75;2933441;-64
2023/11/29 11:51:02;;;;;;;8.05;3.65;;;;;;;15.45;39.92;96843.59;1224619;75;2916817;-65
2023/11/29 11:53:44;;;;;;;6.45;3.75;;;;;;;14.85;40.59;96853.09;1223634;75;2921166;-65
2023/11/29 11:56:25;;;;;;;5.10;3.80;;;;;;;10.75;46.64;96849.13;1224126;75;2925058;-63
2023/11/29 11:58:58;;;;;;;6.85;5.10;;;;;;;12.84;44.01;96847.25;1224058;75;2929395;-64
2023/11/29 12:01:32;;;;;;;12.50;4.15;;;;;;;12.62;43.68;96848.16;1225191;75;2917006;-65
2023/11/29 12:04:07;;;;;;;5.25;4.00;;;;;;;9.89;47.93;96854.84;1223877;75;2923257;-63
2023/11/29 12:06:43;;;;;;;4.70;3.80;;;;;;;7.49;53.85;96850.19;1224592;75;2917677;-64
2023/11/29 12:09:16;;;;;;;8.00;4.75;;;;;;;11.26;49.25;96860.84;1224289;75;2916874;-65
2023/11/29 12:11:50;;;;;;;5.50;3.90;;;;;;;8.17;53.81;96857.19;1224375;75;2923020;-63
2023/11/29 12:14:23;;;;;;;8.05;5.80;;;;;;;9.06;52.00;96849.13;1225013;75;2918979;-64
2023/11/29 12:16:56;;;;;;;16.55;10.60;;;;;;;6.15;58.03;96855.66;1224148;75;2917413;-64
2023/11/29 12:19:31;;;;;;;8.85;5.15;;;;;;;7.60;54.13;96858.47;1224665;75;2919112;-65
2023/11/29 12:22:06;;;;;;;7.90;4.75;;;;;;;7.04;58.83;96864.59;1224068;75;2920695;-67
2023/11/29 12:24:43;;;;;;;5.80;4.70;;;;;;;7.56;56.84;96858.69;1224520;75;2933493;-65
2023/11/29 12:27:19;;;;;;;5.55;4.20;;;;;;;8.46;54.64;96857.03;1223743;75;2917082;-65
2023/11/29 12:29:52;;;;;;;8.55;4.70;;;;;;;7.93;55.35;96852.72;1224779;75;2918196;-64
2023/11/29 12:32:25;;;;;;;9.80;4.90;;;;;;;8.44;55.50;96847.84;1222816;75;2922438;-64
2023/11/29 12:35:03;;;;;;;7.50;4.90;;;;;;;9.15;54.82;96859.13;1224527;75;2924162;-63
2023/11/29 12:37:36;;;;;;;6.20;5.00;;;;;;;8.02;54.70;96860.75;1224478;75;2932266;-65
2023/11/29 12:40:12;;;;;;;5.20;4.40;;;;;;;10.08;52.22;96858.66;1224009;75;2928651;-63
2023/11/29 12:42:45;;;;;;;5.50;4.50;;;;;;;9.36;52.90;96855.06;1224344;75;2924613;-64
2023/11/29 12:45:19;;;;;;;4.85;3.85;;;;;;;13.03;47.35;96861.09;1223556;75;2931955;-63
2023/11/29 12:47:52;;;;;;;5.35;3.70;;;;;;;12.25;46.47;96860.34;1224991;75;2920335;-62
2023/11/29 12:50:28;;;;;;;7.10;4.50;;;;;;;12.73;46.49;96853.56;1223771;75;2917871;-65
2023/11/29 12:53:01;;;;;;;4.10;3.40;;;;;;;15.81;41.12;96862.53;1224557;75;2924672;-63
2023/11/29 12:55:35;;;;;;;6.60;4.65;;;;;;;13.13;43.30;96859.53;1224061;75;2921924;-63
2023/11/29 12:58:09;;;;;;;6.90;5.20;;;;;;;12.67;45.21;96861.09;1224408;75;2934554;-64
2023/11/29 13:00:44;;;;;;;6.30;4.50;;;;;;;13.64;43.83;96853.59;1224800;75;2920685;-65
2023/11/29 13:03:17;;;;;;;7.45;3.95;;;;;;;13.95;43.41;96851.47;1224442;75;2924289;-66
2023/11/29 13:05:53;;;;;;;5.05;3.90;;;;;;;14.07;42.22;96852.88;1224999;75;2918728;-64
2023/11/29 13:08:26;;;;;;;5.75;4.10;;;;;;;15.73;41.23;96843.84;1224167;75;2924796;-67
2023/11/29 13:10:58;;;;;;;5.40;4.25;;;;;;;13.80;43.42;96846.41;1224088;75;2925416;-63
2023/11/29 13:13:31;;;;;;;5.30;4.35;;;;;;;12.74;45.41;96841.31;1224719;75;2918465;-63
2023/11/29 13:16:04;;;;;;;4.35;3.60;;;;;;;14.79;42.72;96847.66;1224279;75;2918311;-64
2023/11/29 13:18:37;;;;;;;13.75;7.50;;;;;;;11.76;46.27;96854.53;1224110;75;2922992;-63
2023/11/29 13:21:12;;;;;;;13.80;7.50;;;;;;;12.33;46.25;96836.59;1223625;75;2936754;-66
2023/11/29 13:23:46;;;;;;;10.20;6.60;;;;;;;12.14;46.80;96835.69;1223683;75;2927406;-64
2023/11/29 13:26:19;;;;;;;6.85;4.30;;;;;;;12.99;45.16;96833.16;1224040;75;2919702;-65
2023/11/29 13:28:52;;;;;;;6.40;5.40;;;;;;;13.08;46.06;96827.31;1224710;75;2930559;-67
2023/11/29 13:31:24;;;;;;;7.30;5.05;;;;;;;12.23;45.97;96827.16;1223571;75;2933145;-65
2023/11/29 13:33:57;;;;;;;6.90;5.65;;;;;;;10.53;49.26;96827.94;1223976;75;2923147;-64
2023/11/29 13:36:35;;;;;;;6.60;4.55;;;;;;;12.69;46.63;96813.91;1224203;75;2920661;-64
2023/11/29 13:39:11;;;;;;;18.70;8.80;;;;;;;11.17;48.60;96823.50;1223923;75;2926753;-63
2023/11/29 13:41:44;;;;;;;12.80;6.80;;;;;;;8.69;53.72;96827.25;1224005;75;2927171;-65
2023/11/29 13:44:17;;;;;;;8.65;5.90;;;;;;;7.41;56.61;96828.78;1224097;75;2919443;-65
2023/11/29 13:46:50;;;;;;;7.10;4.90;;;;;;;6.61;59.66;96836.97;1224632;75;2909763;-63
2023/11/29 13:49:23;;;;;;;6.90;5.55;;;;;;;6.09;61.65;96836.53;1224328;75;2916787;-65
2023/11/29 13:51:59;;;;;;;5.65;4.95;;;;;;;5.58;63.40;96836.72;1223545;75;2923922;-64
2023/11/29 13:54:31;;;;;;;6.65;5.55;;;;;;;4.74;66.65;96830.94;1224992;75;2916157;-65
2023/11/29 13:57:04;;;;;;;5.65;4.55;;;;;;;5.46;64.77;96836.50;1224029;75;2918895;-64
2023/11/29 13:59:37;;;;;;;5.20;4.25;;;;;;;5.28;66.01;96836.59;1223143;75;2976608;-64
2023/11/29 14:02:11;;;;;;;6.90;4.70;;;;;;;5.29;66.33;96846.22;1224699;75;2929446;-63
2023/11/29 14:04:44;;;;;;;5.95;4.90;;;;;;;4.98;67.56;96841.84;1224478;75;2922148;-64
2023/11/29 14:07:21;;;;;;;4.90;4.20;;;;;;;5.00;68.03;96844.09;1223458;75;2923990;-64
2023/11/29 14:09:54;;;;;;;6.90;6.15;;;;;;;4.24;70.42;96847.41;1224648;75;2922110;-65
2023/11/29 14:12:26;;;;;;;6.35;5.40;;;;;;;4.33;71.22;96843.19;1224705;75;2919871;-64
2023/11/29 14:14:59;;;;;;;6.70;5.50;;;;;;;4.37;72.00;96852.66;1224297;75;2930701;-64
2023/11/29 14:17:33;;;;;;;8.45;5.70;;;;;;;4.20;72.17;96857.66;1225420;75;2927489;-63
2023/11/29 14:20:08;;;;;;;5.15;4.20;;;;;;;4.67;71.35;96867.22;1223472;75;2922883;-65
2023/11/29 14:22:43;;;;;;;8.40;5.90;;;;;;;4.13;73.22;96868.78;1225099;75;2929135;-63
2023/11/29 14:25:16;;;;;;;7.85;5.70;;;;;;;4.07;73.52;96873.31;1224203;75;2923221;-63
2023/11/29 14:27:49;;;;;;;7.50;5.85;;;;;;;3.93;75.71;96874.66;1224736;75;2935058;-65
2023/11/29 14:30:22;;;;;;;5.80;5.20;;;;;;;4.03;75.57;96878.13;1224696;75;2929077;-65
2023/11/29 14:32:55;;;;;;;6.25;5.25;;;;;;;4.21;74.71;96880.84;1224644;75;2917976;-64
2023/11/29 14:35:28;;;;;;;5.05;4.00;;;;;;;4.48;73.11;96880.06;1224377;75;2917482;-64
2023/11/29 14:38:03;;;;;;;4.20;3.70;;;;;;;4.52;73.64;96885.31;1225066;75;2916663;-63
2023/11/29 14:40:36;;;;;;;4.55;3.45;;;;;;;4.32;74.36;96885.78;1224203;75;2924587;-64
2023/11/29 14:43:09;;;;;;;4.05;3.20;;;;;;;4.38;73.73;96875.13;1224683;75;2924248;-66
2023/11/29 14:45:41;;;;;;;4.25;3.40;;;;;;;4.26;74.56;96885.66;1224993;75;2917188;-66
2023/11/29 14:48:14;;;;;;;5.05;3.45;;;;;;;4.23;74.75;96886.56;1224733;75;2915626;-63
2023/11/29 14:50:47;;;;;;;3.35;2.90;;;;;;;4.20;74.95;96894.81;1224014;75;2921451;-64
2023/11/29 14:53:23;;;;;;;3.05;2.65;;;;;;;4.15;74.14;96890.75;1224668;75;2924205;-64
2023/11/29 14:55:56;;;;;;;3.10;2.60;;;;;;;4.09;75.39;96891.81;1223425;75;2926541;-64
2023/11/29 14:58:29;;;;;;;4.30;2.70;;;;;;;3.92;75.96;96905.66;1224170;75;2930663;-63
2023/11/29 15:01:02;;;;;;;4.10;3.40;;;;;;;3.88;76.78;96901.56;1225135;75;2914948;-63
2023/11/29 15:03:35;;;;;;;3.35;2.85;;;;;;;3.86;76.82;96904.72;1223967;75;2927060;-65
2023/11/29 15:06:09;;;;;;;2.80;2.50;;;;;;;3.70;77.68;96905.00;1224611;75;2925059;-67
2023/11/29 15:08:45;;;;;;;3.30;2.45;;;;;;;3.71;77.52;96906.50;1224295;83;2917869;-63
2023/11/29 15:11:18;;;;;;;4.85;3.40;;;;;;;3.30;79.94;96908.47;1224162;75;2925211;-64
2023/11/29 15:13:51;;;;;;;4.90;3.40;;;;;;;3.41;79.83;96908.81;1224507;83;2917326;-63
2023/11/29 15:16:24;;;;;;;3.50;2.90;;;;;;;3.46;79.08;96908.22;1224213;75;2924333;-64
2023/11/29 15:18:56;;;;;;;3.75;2.95;;;;;;;3.31;80.09;96913.44;1224498;75;2920515;-63
2023/11/29 15:21:29;;;;;;;3.45;3.10;;;;;;;3.14;82.59;96906.75;1223953;75;2922495;-64
2023/11/29 15:24:05;;;;;;;3.60;2.80;;;;;;;3.04;82.89;96916.78;1224243;75;2929018;-64
2023/11/29 15:26:39;;;;;;;3.35;2.95;;;;;;;3.10;82.16;96912.31;1224594;75;2919407;-65
2023/11/29 15:29:12;;;;;;;4.10;3.10;;;;;;;2.89;84.46;96915.81;1224464;75;2915202;-63
2023/11/29 15:31:45;;;;;;;4.25;3.80;;;;;;;2.71;87.33;96922.59;1224386;75;2920047;-64
2023/11/29 15:34:17;;;;;;;5.10;3.75;;;;;;;2.62;87.95;96922.53;1224541;75;2924951;-64
2023/11/29 15:36:50;;;;;;;4.40;3.80;;;;;;;2.45;89.32;96918.50;1224317;75;2922715;-64
2023/11/29 15:39:26;;;;;;;4.50;3.40;;;;;;;2.50;88.92;96920.63;1224494;75;2917952;-65
2023/11/29 15:41:58;;;;;;;4.85;3.50;;;;;;;2.32;90.48;96919.31;1223979;75;2918483;-65
2023/11/29 15:44:31;;;;;;;5.45;3.55;;;;;;;2.27;91.83;96919.13;1224979;75;2927049;-66
2023/11/29 15:47:04;;;;;;;6.50;3.90;;;;;;;2.19;91.84;96928.66;1224828;75;2923898;-63
2023/11/29 15:49:37;;;;;;;5.35;3.60;;;;;;;2.16;91.84;96927.56;1224039;75;2917155;-64
2023/11/29 15:52:10;;;;;;;5.80;4.20;;;;;;;2.09;93.29;96933.22;1223729;75;2929532;-64
2023/11/29 15:54:45;;;;;;;5.05;3.40;;;;;;;2.01;94.46;96938.09;1224792;75;2919723;-65
2023/11/29 15:57:18;;;;;;;4.60;3.45;;;;;;;1.96;95.01;96943.31;1224294;75;2932673;-65
2023/11/29 15:59:52;;;;;;;4.70;3.70;;;;;;;1.80;97.26;96944.94;1224132;75;2919058;-62
2023/11/29 16:02:25;;;;;;;4.85;3.75;;;;;;;1.78;96.75;96946.56;1224384;75;2922657;-63
2023/11/29 16:05:01;;;;;;;6.05;4.45;;;;;;;1.64;98.85;96943.13;1224476;75;2922276;-65
2023/11/29 16:07:35;;;;;;;5.65;4.40;;;;;;;1.63;100.00;96952.41;1224311;75;2922004;-64
2023/11/29 16:10:14;;;;;;;6.10;4.60;;;;;;;1.51;100.00;96947.75;1223713;75;2928762;-66
2023/11/29 16:12:47;;;;;;;8.35;5.05;;;;;;;1.42;100.00;96943.03;1224544;75;2937482;-63
2023/11/29 16:15:20;;;;;;;6.80;5.70;;;;;;;1.34;100.00;96947.13;1224101;75;2918969;-62
2023/11/29 16:17:52;;;;;;;7.50;5.80;;;;;;;1.24;100.00;96948.94;1224562;75;2922089;-63
2023/11/29 16:20:25;;;;;;;8.25;6.05;;;;;;;1.15;100.00;96951.53;1224138;75;2923064;-64
2023/11/29 16:22:58;;;;;;;9.80;7.25;;;;;;;0.99;100.00;96947.00;1223749;75;2929146;-63
2023/11/29 16:25:34;;;;;;;9.05;8.00;;;;;;;0.93;100.00;96953.34;1224731;75;2918515;-64
2023/11/29 16:28:06;;;;;;;10.40;7.80;;;;;;;0.96;100.00;96960.56;1223767;75;2922582;-63
2023/11/29 16:30:39;;;;;;;11.00;8.45;;;;;;;0.86;100.00;96965.06;1223752;75;2919202;-63
2023/11/29 16:33:14;;;;;;;11.55;8.85;;;;;;;0.77;100.00;96959.53;1224499;75;2925348;-64
2023/11/29 16:35:46;;;;;;;13.70;10.20;;;;;;;0.74;100.00;96963.84;1223841;75;2934401;-64
2023/11/29 16:38:19;;;;;;;14.50;9.90;;;;;;;0.72;100.00;96979.69;1221522;75;2930574;-63
2023/11/29 16:40:55;;;;;;;13.50;9.75;;;;;;;0.73;100.00;96967.72;1223107;67;2924386;-61
2023/11/29 16:43:28;;;;;;;10.60;8.05;;;;;;;0.68;100.00;96972.88;1225156;75;2922104;-66
2023/11/29 16:46:02;;;;;;;11.20;7.85;;;;;;;0.60;100.00;96975.78;1224513;75;2929232;-63
2023/11/29 16:48:35;;;;;;;9.70;7.25;;;;;;;0.59;100.00;96976.94;1223626;75;2924588;-62
2023/11/29 16:51:10;;;;;;;11.20;7.95;;;;;;;0.42;100.00;96978.16;1224042;75;2924089;-63
2023/11/29 16:53:43;;;;;;;9.35;7.35;;;;;;;0.36;100.00;96986.00;1224182;75;2905478;-64
2023/11/29 16:56:18;;;;;;;10.65;7.90;;;;;;;0.35;100.00;96984.47;1224096;75;2923479;-65
2023/11/29 16:58:51;;;;;;;9.65;7.55;;;;;;;0.32;100.00;96992.66;1224537;75;2918221;-65
2023/11/29 17:01:25;;;;;;;11.00;8.00;;;;;;;0.27;100.00;96991.25;1224564;75;2918831;-65
2023/11/29 17:03:58;;;;;;;10.90;8.10;;;;;;;0.29;100.00;96991.56;1223198;75;2924091;-64
2023/11/29 17:06:31;;;;;;;10.25;7.65;;;;;;;0.25;100.00;96990.91;1224819;75;2918500;-63
2023/11/29 17:09:04;;;;;;;10.90;8.65;;;;;;;0.09;100.00;96988.97;1224491;75;2924142;-64
2023/11/29 17:11:39;;;;;;;10.50;8.25;;;;;;;0.05;100.00;96987.53;1224162;75;2922528;-63
2023/11/29 17:14:12;;;;;;;11.45;9.20;;;;;;;0.01;100.00;96976.13;1224404;75;2924475;-66
2023/11/29 17:16:45;;;;;;;11.70;9.65;;;;;;;-0.15;100.00;96977.63;1223696;75;2924859;-64
2023/11/29 17:19:18;;;;;;;13.75;9.60;;;;;;;-0.06;100.00;96987.81;1224541;75;2920257;-63
2023/11/29 17:21:51;;;;;;;13.75;9.95;;;;;;;-0.12;100.00;96987.56;1224003;75;2922036;-62
2023/11/29 17:24:23;;;;;;;13.70;9.70;;;;;;;-0.13;100.00;96977.97;1224138;75;2920090;-66
2023/11/29 17:26:59;;;;;;;15.05;10.50;;;;;;;-0.24;100.00;96975.53;1224141;75;2924235;-62